Time;durP1;ratioP1;P1;durP2;ratioP2;P2;SDS_P1;SDS_P2;PMS_P1;PMS_P2;Temp;Humidity;BMP_temperature;BMP_pressure;BME280_temperature;BME280_humidity;BME280_pressure;Samples;Min_cycle;Max_cycle;Signal;HPM_P1;HPM_P2
2023/03/01 00:02:08;;;;;;;5.27;4.40;;;;;;;;;;5062445;28;20294;-76
2023/03/01 00:04:36;;;;;;;4.97;4.40;;;;;;;;;;5057396;28;20227;-76
2023/03/01 00:07:03;;;;;;;6.17;4.63;;;;;;;;;;5062866;28;20207;-76
2023/03/01 00:09:30;;;;;;;4.80;4.30;;;;;;;;;;5062131;28;20211;-76
2023/03/01 00:11:58;;;;;;;6.27;4.63;;;;;;;;;;5059443;28;20208;-76
2023/03/01 00:14:25;;;;;;;5.37;4.87;;;;;;;;;;5059446;28;20205;-76
2023/03/01 00:16:53;;;;;;;5.63;4.70;;;;;;;;;;5060034;28;20213;-76
2023/03/01 00:19:21;;;;;;;6.00;5.30;;;;;;;;;;5064159;28;20203;-76
2023/03/01 00:21:49;;;;;;;7.23;5.43;;;;;;;;;;5056955;28;20242;-76
2023/03/01 00:24:16;;;;;;;6.67;5.90;;;;;;;;;;5059336;28;20364;-76
2023/03/01 00:26:43;;;;;;;5.43;4.93;;;;;;;;;;5059153;28;20271;-75
2023/03/01 00:29:12;;;;;;;6.37;5.40;;;;;;;;;;5061920;28;20199;-75
2023/03/01 00:31:39;;;;;;;7.57;5.90;;;;;;;;;;5060671;28;20203;-75
2023/03/01 00:34:06;;;;;;;6.80;5.63;;;;;;;;;;5063082;28;20222;-76
2023/03/01 00:36:34;;;;;;;5.93;5.03;;;;;;;;;;5060402;28;20305;-75
2023/03/01 00:39:01;;;;;;;5.73;5.00;;;;;;;;;;5062779;28;20238;-75
2023/03/01 00:41:29;;;;;;;5.73;5.13;;;;;;;;;;5066875;28;20210;-75
2023/03/01 00:43:56;;;;;;;5.60;5.10;;;;;;;;;;5060498;28;20206;-75
2023/03/01 00:46:26;;;;;;;5.93;4.63;;;;;;;;;;5058085;28;20226;-76
2023/03/01 00:48:53;;;;;;;6.23;5.17;;;;;;;;;;5063648;28;20213;-75
2023/03/01 00:51:21;;;;;;;6.20;5.47;;;;;;;;;;5063168;28;20209;-76
2023/03/01 00:53:48;;;;;;;6.20;5.60;;;;;;;;;;5060268;28;20212;-76
2023/03/01 00:56:16;;;;;;;6.90;5.63;;;;;;;;;;5055877;28;20285;-75
2023/03/01 00:58:43;;;;;;;6.50;5.53;;;;;;;;;;5055573;28;20207;-75
2023/03/01 01:01:17;;;;;;;6.73;5.77;;;;;;;;;;5062832;28;20209;-75
2023/03/01 01:03:45;;;;;;;5.67;5.17;;;;;;;;;;5065697;28;20205;-75
2023/03/01 01:06:17;;;;;;;5.83;5.23;;;;;;;;;;5060710;28;20218;-75
2023/03/01 01:08:44;;;;;;;6.90;5.90;;;;;;;;;;5062053;28;20203;-75
2023/03/01 01:11:11;;;;;;;6.20;5.60;;;;;;;;;;5060761;28;20227;-75
2023/03/01 01:13:39;;;;;;;6.50;5.50;;;;;;;;;;5059012;28;20203;-75
2023/03/01 01:16:06;;;;;;;6.83;5.20;;;;;;;;;;5057866;28;20277;-75
2023/03/01 01:18:33;;;;;;;7.70;5.83;;;;;;;;;;5056435;28;20237;-75
2023/03/01 01:21:06;;;;;;;6.37;5.30;;;;;;;;;;5063967;28;20199;-75
2023/03/01 01:23:34;;;;;;;6.30;5.70;;;;;;;;;;5060296;28;20216;-75
2023/03/01 01:26:05;;;;;;;6.33;5.70;;;;;;;;;;5058873;28;20230;-75
2023/03/01 01:28:32;;;;;;;6.43;5.70;;;;;;;;;;5058279;28;20207;-75
2023/03/01 01:30:59;;;;;;;7.83;6.23;;;;;;;;;;5057881;28;20204;-75
2023/03/01 01:33:26;;;;;;;7.43;6.23;;;;;;;;;;5061846;28;20207;-75
2023/03/01 01:35:54;;;;;;;7.10;5.97;;;;;;;;;;5070194;28;20203;-75
2023/03/01 01:38:22;;;;;;;6.90;6.17;;;;;;;;;;5062346;28;20484;-75
2023/03/01 01:40:50;;;;;;;9.00;5.80;;;;;;;;;;5061483;28;20209;-75
2023/03/01 01:43:20;;;;;;;6.27;5.50;;;;;;;;;;5062419;28;20285;-75
2023/03/01 01:45:47;;;;;;;5.90;5.30;;;;;;;;;;5063150;28;20215;-75
2023/03/01 01:48:15;;;;;;;6.60;5.87;;;;;;;;;;5063198;28;20290;-75
2023/03/01 01:50:44;;;;;;;6.80;6.10;;;;;;;;;;5060432;28;20202;-75
2023/03/01 01:53:13;;;;;;;10.87;6.20;;;;;;;;;;5063886;28;20234;-75
2023/03/01 01:55:43;;;;;;;7.33;6.37;;;;;;;;;;5055745;28;20198;-75
2023/03/01 01:58:12;;;;;;;7.27;6.10;;;;;;;;;;5064007;28;20204;-76
2023/03/01 02:00:39;;;;;;;7.63;5.90;;;;;;;;;;5062919;28;20199;-75
2023/03/01 02:03:09;;;;;;;7.93;6.73;;;;;;;;;;5065387;28;20195;-75
2023/03/01 02:05:39;;;;;;;7.90;6.70;;;;;;;;;;5060643;28;20223;-75
2023/03/01 02:08:07;;;;;;;7.90;6.40;;;;;;;;;;5060056;28;20323;-75
2023/03/01 02:10:36;;;;;;;6.80;5.97;;;;;;;;;;5061416;28;20201;-75
2023/03/01 02:13:05;;;;;;;9.37;5.93;;;;;;;;;;5059548;28;20199;-75
2023/03/01 02:15:33;;;;;;;6.83;6.13;;;;;;;;;;5063349;28;20207;-75
2023/03/01 02:18:00;;;;;;;6.97;6.23;;;;;;;;;;5061992;28;20203;-75
2023/03/01 02:20:32;;;;;;;7.73;6.23;;;;;;;;;;5061287;28;20202;-75
2023/03/01 02:22:59;;;;;;;7.87;6.50;;;;;;;;;;5067901;28;20210;-75
2023/03/01 02:25:35;;;;;;;9.67;6.17;;;;;;;;;;5059141;28;20231;-75
2023/03/01 02:28:07;;;;;;;8.93;6.50;;;;;;;;;;5060292;28;20286;-75
2023/03/01 02:30:36;;;;;;;7.07;6.37;;;;;;;;;;5061896;28;20206;-75
2023/03/01 02:33:04;;;;;;;8.07;6.50;;;;;;;;;;5060375;28;20207;-75
2023/03/01 02:35:33;;;;;;;8.57;6.30;;;;;;;;;;5064425;28;20198;-75
2023/03/01 02:38:01;;;;;;;7.23;6.10;;;;;;;;;;5067754;28;20199;-75
2023/03/01 02:40:29;;;;;;;7.07;6.27;;;;;;;;;;5062557;28;20278;-75
2023/03/01 02:42:57;;;;;;;8.20;7.10;;;;;;;;;;5059048;28;20202;-75
2023/03/01 02:45:25;;;;;;;10.00;6.73;;;;;;;;;;5063756;28;20230;-75
2023/03/01 02:47:56;;;;;;;7.63;6.50;;;;;;;;;;5061351;28;20211;-75
2023/03/01 02:50:35;;;;;;;7.77;6.40;;;;;;;;;;5057497;28;20211;-75
2023/03/01 02:53:03;;;;;;;8.20;6.70;;;;;;;;;;5063023;28;20292;-75
2023/03/01 02:55:30;;;;;;;9.43;6.70;;;;;;;;;;5059347;28;20203;-75
2023/03/01 02:58:01;;;;;;;10.67;6.83;;;;;;;;;;5061521;28;20213;-66
2023/03/01 03:00:32;;;;;;;7.43;6.63;;;;;;;;;;5058689;28;20221;-66
2023/03/01 03:03:01;;;;;;;8.57;7.30;;;;;;;;;;5056922;28;20203;-65
2023/03/01 03:05:29;;;;;;;8.20;6.83;;;;;;;;;;5053435;28;20349;-66
2023/03/01 03:07:56;;;;;;;7.77;6.97;;;;;;;;;;5061212;28;20211;-66
2023/03/01 03:10:25;;;;;;;7.87;6.50;;;;;;;;;;5058529;28;20207;-66
2023/03/01 03:12:53;;;;;;;7.77;6.93;;;;;;;;;;5058847;28;20211;-66
2023/03/01 03:15:20;;;;;;;10.47;7.80;;;;;;;;;;5056546;28;20209;-65
2023/03/01 03:17:47;;;;;;;10.77;7.03;;;;;;;;;;5054903;28;20213;-66
2023/03/01 03:20:18;;;;;;;8.03;7.10;;;;;;;;;;5058951;28;20210;-66
2023/03/01 03:22:46;;;;;;;8.40;7.50;;;;;;;;;;5059849;28;20223;-66
2023/03/01 03:25:13;;;;;;;9.97;7.83;;;;;;;;;;5061745;28;20229;-66
2023/03/01 03:27:41;;;;;;;9.17;7.30;;;;;;;;;;5061713;28;20195;-66
2023/03/01 03:30:12;;;;;;;8.53;7.00;;;;;;;;;;5061147;28;20207;-66
2023/03/01 03:32:39;;;;;;;9.43;7.50;;;;;;;;;;5062027;28;20190;-66
2023/03/01 03:35:09;;;;;;;7.97;7.17;;;;;;;;;;5060162;28;20211;-66
2023/03/01 03:40:22;;;;;;;10.30;7.53;;;;;;;;;;5059528;28;20190;-65
2023/03/01 03:42:49;;;;;;;10.73;7.77;;;;;;;;;;5055822;28;20210;-66
2023/03/01 03:45:17;;;;;;;9.47;7.80;;;;;;;;;;5062011;28;20288;-66
2023/03/01 03:47:44;;;;;;;8.30;7.40;;;;;;;;;;5055454;28;20208;-66
2023/03/01 03:50:12;;;;;;;8.27;7.37;;;;;;;;;;5055451;28;20206;-66
2023/03/01 03:52:40;;;;;;;9.33;8.00;;;;;;;;;;5056289;28;20228;-66
2023/03/01 03:55:10;;;;;;;9.30;7.50;;;;;;;;;;5065414;28;20205;-66
2023/03/01 03:57:37;;;;;;;7.90;7.10;;;;;;;;;;5057422;28;20198;-66
2023/03/01 04:00:05;;;;;;;10.53;7.53;;;;;;;;;;5059344;28;20208;-66
2023/03/01 04:02:32;;;;;;;10.57;8.50;;;;;;;;;;5053792;28;20209;-66
2023/03/01 04:04:59;;;;;;;8.77;7.77;;;;;;;;;;5057397;28;20217;-66
2023/03/01 04:07:27;;;;;;;8.63;7.57;;;;;;;;;;5066306;28;20233;-66
2023/03/01 04:09:55;;;;;;;10.57;8.10;;;;;;;;;;5059843;28;20225;-66
2023/03/01 04:12:22;;;;;;;9.37;8.37;;;;;;;;;;5062702;28;20280;-66
2023/03/01 04:14:50;;;;;;;10.53;8.20;;;;;;;;;;5053736;28;20231;-65
2023/03/01 04:17:18;;;;;;;8.87;7.83;;;;;;;;;;5060235;28;20191;-66
2023/03/01 04:19:48;;;;;;;9.30;8.27;;;;;;;;;;5058202;28;20202;-66
2023/03/01 04:22:18;;;;;;;11.07;8.77;;;;;;;;;;5055033;28;20217;-66
2023/03/01 04:24:45;;;;;;;9.90;7.93;;;;;;;;;;5062051;28;20210;-66
2023/03/01 04:27:13;;;;;;;10.13;8.30;;;;;;;;;;5058706;28;20222;-66
2023/03/01 04:29:41;;;;;;;9.73;8.50;;;;;;;;;;5064195;28;20198;-66
2023/03/01 04:32:08;;;;;;;8.90;8.00;;;;;;;;;;5063273;28;20221;-66
2023/03/01 04:34:35;;;;;;;10.63;8.13;;;;;;;;;;5059540;28;20203;-65
2023/03/01 04:37:02;;;;;;;11.60;8.60;;;;;;;;;;5059005;28;20199;-66
2023/03/01 04:39:29;;;;;;;9.80;8.50;;;;;;;;;;5062208;28;20206;-65
2023/03/01 04:41:57;;;;;;;10.07;8.57;;;;;;;;;;5062798;28;20213;-66
2023/03/01 04:44:25;;;;;;;12.60;8.53;;;;;;;;;;5058994;28;20290;-66
2023/03/01 04:46:52;;;;;;;11.93;8.77;;;;;;;;;;5062174;28;20231;-66
2023/03/01 04:49:19;;;;;;;9.60;8.57;;;;;;;;;;5061853;28;20202;-66
2023/03/01 04:51:46;;;;;;;12.30;9.10;;;;;;;;;;5061220;28;20198;-66
2023/03/01 04:54:13;;;;;;;10.50;8.83;;;;;;;;;;5059909;28;20203;-66
2023/03/01 04:56:41;;;;;;;10.73;8.57;;;;;;;;;;5053533;28;20210;-66
2023/03/01 04:59:09;;;;;;;10.90;8.67;;;;;;;;;;5054409;28;20206;-66
2023/03/01 05:01:38;;;;;;;9.67;8.40;;;;;;;;;;5062182;28;20225;-66
2023/03/01 05:04:05;;;;;;;10.27;9.10;;;;;;;;;;5056952;28;20229;-66
2023/03/01 05:06:32;;;;;;;12.10;9.37;;;;;;;;;;5064776;28;20217;-66
2023/03/01 05:08:59;;;;;;;12.83;9.43;;;;;;;;;;5062901;28;20242;-66
2023/03/01 05:11:27;;;;;;;12.63;9.10;;;;;;;;;;5060003;28;20207;-66
2023/03/01 05:13:55;;;;;;;11.57;9.67;;;;;;;;;;5060708;28;20211;-66
2023/03/01 05:16:22;;;;;;;10.60;8.90;;;;;;;;;;5058823;28;20192;-66
2023/03/01 05:18:51;;;;;;;12.40;9.33;;;;;;;;;;5056558;28;20218;-66
2023/03/01 05:21:18;;;;;;;9.60;8.43;;;;;;;;;;5058533;28;20199;-66
2023/03/01 05:23:46;;;;;;;10.20;8.93;;;;;;;;;;5060603;28;20218;-66
2023/03/01 05:26:14;;;;;;;11.07;8.70;;;;;;;;;;5062273;28;20223;-66
2023/03/01 05:28:41;;;;;;;10.47;9.27;;;;;;;;;;5061641;28;20249;-66
2023/03/01 05:31:10;;;;;;;10.97;9.33;;;;;;;;;;5055218;28;20263;-66
2023/03/01 05:33:38;;;;;;;10.17;9.07;;;;;;;;;;5050426;28;20204;-66
2023/03/01 05:36:07;;;;;;;11.60;9.10;;;;;;;;;;5054016;28;20203;-66
2023/03/01 05:38:34;;;;;;;10.60;9.47;;;;;;;;;;5060232;28;20203;-66
2023/03/01 05:41:01;;;;;;;11.57;8.83;;;;;;;;;;5070322;28;20201;-66
2023/03/01 05:43:33;;;;;;;9.80;8.80;;;;;;;;;;5064809;28;20207;-66
2023/03/01 05:46:00;;;;;;;11.73;9.20;;;;;;;;;;5058803;28;20205;-66
2023/03/01 05:48:28;;;;;;;10.97;9.27;;;;;;;;;;5056348;28;20203;-66
2023/03/01 05:50:55;;;;;;;11.63;9.67;;;;;;;;;;5059299;28;20203;-66
2023/03/01 05:53:23;;;;;;;10.33;9.20;;;;;;;;;;5055144;28;20203;-66
2023/03/01 05:55:51;;;;;;;11.53;9.33;;;;;;;;;;5058178;28;20205;-66
2023/03/01 05:58:19;;;;;;;11.20;9.93;;;;;;;;;;5054452;28;20208;-66
2023/03/01 06:00:47;;;;;;;11.53;9.30;;;;;;;;;;5058369;28;20273;-66
2023/03/01 06:03:15;;;;;;;11.07;9.30;;;;;;;;;;5061051;28;20211;-66
2023/03/01 06:05:43;;;;;;;11.30;9.33;;;;;;;;;;5063359;28;20199;-66
2023/03/01 06:08:11;;;;;;;12.30;9.57;;;;;;;;;;5057300;28;20249;-67
2023/03/01 06:10:40;;;;;;;14.10;9.57;;;;;;;;;;5058075;28;20207;-66
2023/03/01 06:13:07;;;;;;;11.43;9.97;;;;;;;;;;5055204;28;20212;-66
2023/03/01 06:15:34;;;;;;;11.90;9.90;;;;;;;;;;5066548;28;20225;-66
2023/03/01 06:18:01;;;;;;;11.93;10.07;;;;;;;;;;5060545;28;20488;-66
2023/03/01 06:20:29;;;;;;;13.30;10.40;;;;;;;;;;5067014;28;20217;-66
2023/03/01 06:22:56;;;;;;;13.50;10.10;;;;;;;;;;5058291;28;20221;-66
2023/03/01 06:25:24;;;;;;;11.27;10.07;;;;;;;;;;5055072;28;20212;-65
2023/03/01 06:27:53;;;;;;;14.07;10.63;;;;;;;;;;5054264;28;20235;-66
2023/03/01 06:30:21;;;;;;;16.70;13.00;;;;;;;;;;5058165;28;20200;-66
2023/03/01 06:32:48;;;;;;;17.03;12.40;;;;;;;;;;5063060;28;20203;-66
2023/03/01 06:35:17;;;;;;;14.83;12.00;;;;;;;;;;5062818;28;20203;-66
2023/03/01 06:37:45;;;;;;;15.70;11.63;;;;;;;;;;5058269;28;20232;-66
2023/03/01 06:40:13;;;;;;;16.40;12.23;;;;;;;;;;5061990;28;20281;-66
2023/03/01 06:42:41;;;;;;;15.63;12.90;;;;;;;;;;5070172;28;20201;-65
2023/03/01 06:45:11;;;;;;;13.27;11.77;;;;;;;;;;5066991;28;20210;-67
2023/03/01 06:47:38;;;;;;;13.40;10.60;;;;;;;;;;5065627;28;20223;-66
2023/03/01 06:50:05;;;;;;;14.30;11.47;;;;;;;;;;5064537;28;20210;-66
2023/03/01 06:52:33;;;;;;;13.30;11.00;;;;;;;;;;5059137;28;20218;-66
2023/03/01 06:55:00;;;;;;;14.13;11.73;;;;;;;;;;5061018;28;20198;-66
2023/03/01 06:57:27;;;;;;;14.47;11.80;;;;;;;;;;5065133;28;20198;-67
2023/03/01 06:59:54;;;;;;;13.50;11.37;;;;;;;;;;5055621;28;20196;-66
2023/03/01 07:02:23;;;;;;;15.83;11.47;;;;;;;;;;5057449;28;20203;-68
2023/03/01 07:04:50;;;;;;;15.73;11.93;;;;;;;;;;5059311;28;20248;-69
2023/03/01 07:07:18;;;;;;;13.57;11.00;;;;;;;;;;5055757;28;20224;-69
2023/03/01 07:09:45;;;;;;;14.57;11.47;;;;;;;;;;5059342;28;20210;-69
2023/03/01 07:12:13;;;;;;;16.97;12.17;;;;;;;;;;5065660;28;20226;-69
2023/03/01 07:14:40;;;;;;;15.23;11.80;;;;;;;;;;5069117;28;20195;-69
2023/03/01 07:17:08;;;;;;;15.33;12.17;;;;;;;;;;5059440;28;20200;-69
2023/03/01 07:19:36;;;;;;;16.83;12.97;;;;;;;;;;5054165;28;20203;-68
2023/03/01 07:22:07;;;;;;;14.23;11.87;;;;;;;;;;5058674;28;20204;-70
2023/03/01 07:24:34;;;;;;;15.87;12.73;;;;;;;;;;5062153;28;20217;-69
2023/03/01 07:27:02;;;;;;;14.10;11.33;;;;;;;;;;5059545;28;20225;-69
2023/03/01 07:29:29;;;;;;;14.40;11.60;;;;;;;;;;5062552;28;20210;-69
2023/03/01 07:31:57;;;;;;;15.30;11.87;;;;;;;;;;5060189;28;20198;-67
2023/03/01 07:34:24;;;;;;;22.40;15.57;;;;;;;;;;5065586;28;20199;-67
2023/03/01 07:36:53;;;;;;;26.10;17.10;;;;;;;;;;5060715;28;20221;-69
2023/03/01 07:39:22;;;;;;;20.70;14.27;;;;;;;;;;5064380;28;20211;-68
2023/03/01 07:41:50;;;;;;;23.87;14.53;;;;;;;;;;5062781;28;20203;-68
2023/03/01 07:44:17;;;;;;;18.37;12.73;;;;;;;;;;5055360;28;20216;-66
2023/03/01 07:46:47;;;;;;;17.80;12.87;;;;;;;;;;5060461;28;20230;-67
2023/03/01 07:49:14;;;;;;;17.87;12.77;;;;;;;;;;5060714;28;20205;-68
2023/03/01 07:51:42;;;;;;;17.10;12.50;;;;;;;;;;5061371;28;20203;-67
2023/03/01 07:54:10;;;;;;;16.40;12.47;;;;;;;;;;5056463;28;20201;-68
2023/03/01 07:56:40;;;;;;;23.23;15.17;;;;;;;;;;5068701;28;20210;-68
2023/03/01 07:59:08;;;;;;;15.03;12.40;;;;;;;;;;5057458;28;20275;-68
2023/03/01 08:01:35;;;;;;;15.63;12.67;;;;;;;;;;5065031;28;20212;-68
2023/03/01 08:04:04;;;;;;;15.97;13.13;;;;;;;;;;5051132;28;20199;-68
2023/03/01 08:06:31;;;;;;;14.10;12.00;;;;;;;;;;5056135;28;20203;-69
2023/03/01 08:08:59;;;;;;;15.23;12.13;;;;;;;;;;5057556;28;20218;-69
2023/03/01 08:11:28;;;;;;;15.30;12.00;;;;;;;;;;5053028;28;20207;-68
2023/03/01 08:13:56;;;;;;;16.00;12.70;;;;;;;;;;5058938;28;20252;-69
2023/03/01 08:16:23;;;;;;;15.23;11.97;;;;;;;;;;5055528;28;20225;-69
2023/03/01 08:18:50;;;;;;;13.77;11.67;;;;;;;;;;5056495;28;20198;-68
2023/03/01 08:21:18;;;;;;;13.63;11.70;;;;;;;;;;5059846;28;20207;-68
2023/03/01 08:23:46;;;;;;;14.77;11.90;;;;;;;;;;5059813;28;20202;-68
2023/03/01 08:26:14;;;;;;;16.40;11.60;;;;;;;;;;5060881;28;20198;-68
2023/03/01 08:28:43;;;;;;;15.20;12.20;;;;;;;;;;5061245;28;20220;-69
2023/03/01 08:31:18;;;;;;;15.73;12.33;;;;;;;;;;5061582;28;20198;-68
2023/03/01 08:33:50;;;;;;;13.97;11.50;;;;;;;;;;5063121;28;20198;-68
2023/03/01 08:36:17;;;;;;;15.53;12.23;;;;;;;;;;5053653;28;20218;-68
2023/03/01 08:38:45;;;;;;;14.90;11.37;;;;;;;;;;5058998;28;20202;-68
2023/03/01 08:41:13;;;;;;;16.10;12.03;;;;;;;;;;5056997;28;20221;-68
2023/03/01 08:43:40;;;;;;;14.30;11.73;;;;;;;;;;5064610;28;20213;-67
2023/03/01 08:46:09;;;;;;;13.43;11.13;;;;;;;;;;5058342;28;20198;-68
2023/03/01 08:48:36;;;;;;;15.57;11.80;;;;;;;;;;5059993;28;20240;-68
2023/03/01 08:51:10;;;;;;;13.67;11.33;;;;;;;;;;5059851;28;20199;-68
2023/03/01 08:53:38;;;;;;;12.27;10.80;;;;;;;;;;5061254;28;20308;-68
2023/03/01 08:56:06;;;;;;;14.53;11.37;;;;;;;;;;5062076;28;20207;-68
2023/03/01 08:58:33;;;;;;;13.77;10.97;;;;;;;;;;5058990;28;20200;-68
2023/03/01 09:01:01;;;;;;;13.83;11.37;;;;;;;;;;5064439;28;20211;-68
2023/03/01 09:03:31;;;;;;;13.97;11.90;;;;;;;;;;5064282;28;20222;-67
2023/03/01 09:06:01;;;;;;;16.00;11.97;;;;;;;;;;5061195;28;20203;-68
2023/03/01 09:08:29;;;;;;;16.37;11.43;;;;;;;;;;5064925;28;20318;-68
2023/03/01 09:10:56;;;;;;;13.27;11.03;;;;;;;;;;5060670;28;20199;-67
2023/03/01 09:13:24;;;;;;;13.27;11.37;;;;;;;;;;5064709;28;20205;-68
2023/03/01 09:15:52;;;;;;;15.10;11.33;;;;;;;;;;5060469;28;20252;-68
2023/03/01 09:18:19;;;;;;;14.60;11.37;;;;;;;;;;5062679;28;20203;-68
2023/03/01 09:20:48;;;;;;;14.43;11.90;;;;;;;;;;5060344;28;20199;-67
2023/03/01 09:23:16;;;;;;;14.00;11.40;;;;;;;;;;5059316;28;20211;-67
2023/03/01 09:25:43;;;;;;;14.37;11.47;;;;;;;;;;5065759;28;20200;-67
2023/03/01 09:28:10;;;;;;;12.30;10.77;;;;;;;;;;5058425;28;20229;-68
2023/03/01 09:30:38;;;;;;;14.03;11.63;;;;;;;;;;5059961;28;20293;-68
2023/03/01 09:33:05;;;;;;;13.53;11.03;;;;;;;;;;5058193;28;20199;-67
2023/03/01 09:35:33;;;;;;;13.50;11.17;;;;;;;;;;5053613;28;20198;-67
2023/03/01 09:38:01;;;;;;;14.70;11.60;;;;;;;;;;5056793;28;20206;-66
2023/03/01 09:40:30;;;;;;;13.83;10.70;;;;;;;;;;5064429;28;20211;-66
2023/03/01 09:43:00;;;;;;;14.13;11.00;;;;;;;;;;5062587;28;20199;-66
2023/03/01 09:45:30;;;;;;;13.13;11.13;;;;;;;;;;5061894;28;20290;-66
2023/03/01 09:47:58;;;;;;;13.80;10.30;;;;;;;;;;5057581;28;20237;-67
2023/03/01 09:50:28;;;;;;;14.87;11.57;;;;;;;;;;5055578;28;20209;-65
2023/03/01 09:53:00;;;;;;;14.10;10.80;;;;;;;;;;5056344;28;20206;-66
2023/03/01 09:55:31;;;;;;;12.67;11.07;;;;;;;;;;5058798;28;20199;-66
2023/03/01 09:58:02;;;;;;;13.47;11.03;;;;;;;;;;5059952;28;20207;-66
2023/03/01 10:00:38;;;;;;;12.57;10.50;;;;;;;;;;5062718;28;20204;-65
2023/03/01 10:03:10;;;;;;;16.10;10.73;;;;;;;;;;5068042;28;20199;-67
2023/03/01 10:05:43;;;;;;;13.90;11.00;;;;;;;;;;5065512;28;20198;-66
2023/03/01 10:08:21;;;;;;;13.60;10.93;;;;;;;;;;5062337;28;20223;-66
2023/03/01 10:10:50;;;;;;;13.30;11.03;;;;;;;;;;5063559;28;20222;-65
2023/03/01 10:13:20;;;;;;;12.07;10.50;;;;;;;;;;5060424;28;20209;-65
2023/03/01 10:15:55;;;;;;;14.07;11.27;;;;;;;;;;5065110;28;20195;-65
2023/03/01 10:18:24;;;;;;;13.63;11.23;;;;;;;;;;5058762;28;20208;-66
2023/03/01 10:20:54;;;;;;;12.60;10.67;;;;;;;;;;5059855;28;20211;-66
2023/03/01 10:23:21;;;;;;;14.07;11.37;;;;;;;;;;5065669;28;20206;-66
2023/03/01 10:25:58;;;;;;;14.33;11.33;;;;;;;;;;5060643;28;20208;-65
2023/03/01 10:28:27;;;;;;;13.40;11.03;;;;;;;;;;5065111;28;20202;-64
2023/03/01 10:30:54;;;;;;;13.73;11.90;;;;;;;;;;5062095;28;20210;-66
2023/03/01 10:33:23;;;;;;;12.93;11.57;;;;;;;;;;5063871;28;20294;-66
2023/03/01 10:35:51;;;;;;;11.37;10.17;;;;;;;;;;5064527;28;20203;-64
2023/03/01 10:38:20;;;;;;;12.50;11.20;;;;;;;;;;5063807;28;20192;-63
2023/03/01 10:40:57;;;;;;;13.17;11.67;;;;;;;;;;5056487;28;20206;-64
2023/03/01 10:43:25;;;;;;;13.27;11.20;;;;;;;;;;5056517;28;20202;-65
2023/03/01 10:45:53;;;;;;;12.50;11.20;;;;;;;;;;5059787;28;20210;-63
2023/03/01 10:48:23;;;;;;;12.33;10.93;;;;;;;;;;5057814;28;20234;-64
2023/03/01 10:50:51;;;;;;;12.50;10.40;;;;;;;;;;5061837;28;20284;-64
2023/03/01 10:53:28;;;;;;;13.17;11.77;;;;;;;;;;5058509;28;20199;-63
2023/03/01 10:56:02;;;;;;;12.83;11.20;;;;;;;;;;5064052;28;20225;-65
2023/03/01 10:58:29;;;;;;;12.07;10.77;;;;;;;;;;5060041;28;20203;-65
2023/03/01 11:00:57;;;;;;;12.87;11.10;;;;;;;;;;5063290;28;20203;-65
2023/03/01 11:03:25;;;;;;;13.77;11.63;;;;;;;;;;5057174;28;20203;-65
2023/03/01 11:05:58;;;;;;;12.53;10.90;;;;;;;;;;5062943;28;20207;-64
2023/03/01 11:08:34;;;;;;;12.77;11.47;;;;;;;;;;5061117;28;20227;-65
2023/03/01 11:11:08;;;;;;;12.83;11.43;;;;;;;;;;5061273;28;20198;-65
2023/03/01 11:13:36;;;;;;;13.30;11.90;;;;;;;;;;5064626;28;20224;-63
2023/03/01 11:16:05;;;;;;;13.10;11.80;;;;;;;;;;5055972;28;20195;-63
2023/03/01 11:18:32;;;;;;;14.40;12.30;;;;;;;;;;5059994;28;20217;-64
2023/03/01 11:21:00;;;;;;;13.53;11.67;;;;;;;;;;5062489;28;20203;-64
2023/03/01 11:23:29;;;;;;;13.17;11.83;;;;;;;;;;5059417;28;20268;-63
2023/03/01 11:25:57;;;;;;;12.80;11.40;;;;;;;;;;5063595;28;20202;-64
2023/03/01 11:28:27;;;;;;;14.27;12.77;;;;;;;;;;5063776;28;20280;-64
2023/03/01 11:30:58;;;;;;;13.03;11.73;;;;;;;;;;5057993;28;20204;-63
2023/03/01 11:33:33;;;;;;;13.30;11.33;;;;;;;;;;5061075;28;20218;-63
2023/03/01 11:36:03;;;;;;;12.00;10.80;;;;;;;;;;5055970;28;20206;-64
2023/03/01 11:38:34;;;;;;;12.60;11.30;;;;;;;;;;5062837;28;20218;-64
2023/03/01 11:41:07;;;;;;;13.37;11.70;;;;;;;;;;5054214;28;20198;-65
2023/03/01 11:43:39;;;;;;;13.33;11.30;;;;;;;;;;5063536;28;20225;-63
2023/03/01 11:46:27;;;;;;;13.23;12.00;;;;;;;;;;5064514;28;20199;-63
2023/03/01 11:48:59;;;;;;;12.30;11.00;;;;;;;;;;5055648;28;20218;-62
2023/03/01 11:51:32;;;;;;;12.67;11.37;;;;;;;;;;5054590;28;20203;-64
2023/03/01 11:54:04;;;;;;;13.77;11.23;;;;;;;;;;5063161;28;20221;-64
2023/03/01 11:56:33;;;;;;;14.03;11.33;;;;;;;;;;5052244;28;20199;-64
2023/03/01 11:59:27;;;;;;;12.90;11.23;;;;;;;;;;5059705;28;20198;-65
2023/03/01 12:02:03;;;;;;;11.53;10.43;;;;;;;;;;5022599;28;20286;-64
2023/03/01 12:04:50;;;;;;;11.50;10.37;;;;;;;;;;5056767;28;20214;-65
2023/03/01 12:07:19;;;;;;;13.20;11.57;;;;;;;;;;5064621;28;20199;-62
2023/03/01 12:09:54;;;;;;;12.27;10.53;;;;;;;;;;5060934;28;20215;-62
2023/03/01 12:12:30;;;;;;;11.27;10.13;;;;;;;;;;5062119;28;20202;-63
2023/03/01 12:15:06;;;;;;;11.93;10.73;;;;;;;;;;5056550;28;20198;-64
2023/03/01 12:17:55;;;;;;;13.00;11.17;;;;;;;;;;5059487;28;20214;-63
2023/03/01 12:20:27;;;;;;;13.10;10.80;;;;;;;;;;5064973;28;20203;-63
2023/03/01 12:22:59;;;;;;;12.00;10.80;;;;;;;;;;5064323;28;20213;-62
2023/03/01 12:25:30;;;;;;;11.93;10.73;;;;;;;;;;5058125;28;20207;-63
2023/03/01 12:28:04;;;;;;;12.67;11.37;;;;;;;;;;5054824;28;20210;-63
2023/03/01 12:30:36;;;;;;;12.67;11.33;;;;;;;;;;5053987;28;20208;-63
2023/03/01 12:33:16;;;;;;;13.40;11.93;;;;;;;;;;5062344;28;20198;-62
2023/03/01 12:35:51;;;;;;;16.80;12.50;;;;;;;;;;5052269;28;20211;-64
2023/03/01 12:38:27;;;;;;;13.00;11.20;;;;;;;;;;5056797;28;20205;-63
2023/03/01 12:41:08;;;;;;;12.60;11.00;;;;;;;;;;5058109;28;20220;-64
2023/03/01 12:43:40;;;;;;;12.57;11.23;;;;;;;;;;5059110;28;20206;-64
2023/03/01 12:46:12;;;;;;;11.80;10.50;;;;;;;;;;5058234;28;20205;-64
2023/03/01 12:48:48;;;;;;;12.27;11.07;;;;;;;;;;5058420;28;20221;-63
2023/03/01 12:51:16;;;;;;;12.40;11.10;;;;;;;;;;5064064;28;20198;-64
2023/03/01 12:53:45;;;;;;;12.77;11.17;;;;;;;;;;5062452;28;20207;-63
2023/03/01 12:56:13;;;;;;;13.27;11.33;;;;;;;;;;5061356;28;20207;-62
2023/03/01 12:58:43;;;;;;;12.23;11.00;;;;;;;;;;5058250;28;20203;-64
2023/03/01 13:01:17;;;;;;;12.50;11.13;;;;;;;;;;5066937;28;20209;-64
2023/03/01 13:03:54;;;;;;;12.50;11.30;;;;;;;;;;5061912;28;20203;-63
2023/03/01 13:06:25;;;;;;;12.73;10.77;;;;;;;;;;5056846;28;20207;-63
2023/03/01 13:08:56;;;;;;;13.17;11.50;;;;;;;;;;5060756;28;20211;-64
2023/03/01 13:11:24;;;;;;;15.40;13.40;;;;;;;;;;5061463;28;20199;-64
2023/03/01 13:13:54;;;;;;;13.43;11.27;;;;;;;;;;5058935;28;20214;-64
2023/03/01 13:16:23;;;;;;;12.83;11.50;;;;;;;;;;5059584;28;20207;-63
2023/03/01 13:19:07;;;;;;;12.37;11.10;;;;;;;;;;5057513;28;20198;-63
2023/03/01 13:21:34;;;;;;;12.67;11.20;;;;;;;;;;5060095;28;20203;-63
2023/03/01 13:24:01;;;;;;;12.60;11.33;;;;;;;;;;5061936;28;20210;-64
2023/03/01 13:26:28;;;;;;;11.83;10.60;;;;;;;;;;5061985;28;20210;-62
2023/03/01 13:28:57;;;;;;;11.50;10.40;;;;;;;;;;5061498;28;20215;-64
2023/03/01 13:31:43;;;;;;;11.80;10.60;;;;;;;;;;5060582;28;20249;-64
2023/03/01 13:34:40;;;;;;;13.57;11.63;;;;;;;;;;5059247;28;20199;-63
2023/03/01 13:37:10;;;;;;;11.90;10.43;;;;;;;;;;5055762;28;20290;-62
2023/03/01 13:39:41;;;;;;;12.20;11.00;;;;;;;;;;5063794;28;20292;-63
2023/03/01 13:42:23;;;;;;;11.60;10.40;;;;;;;;;;5058523;28;20221;-63
2023/03/01 13:44:50;;;;;;;11.83;9.53;;;;;;;;;;5060678;28;20209;-63
2023/03/01 13:47:19;;;;;;;12.40;10.73;;;;;;;;;;5062674;28;20199;-63
2023/03/01 13:49:50;;;;;;;12.30;11.00;;;;;;;;;;5060820;28;20229;-63
2023/03/01 13:52:32;;;;;;;12.67;11.23;;;;;;;;;;5058887;28;20195;-64
2023/03/01 13:55:01;;;;;;;12.67;10.73;;;;;;;;;;5056892;28;20231;-64
2023/03/01 13:57:32;;;;;;;11.43;10.33;;;;;;;;;;5061477;28;20203;-63
2023/03/01 14:00:00;;;;;;;10.37;9.20;;;;;;;;;;5061072;28;20199;-62
2023/03/01 14:02:28;;;;;;;11.47;10.27;;;;;;;;;;5053869;28;20207;-63
2023/03/01 14:05:00;;;;;;;13.87;10.90;;;;;;;;;;5061854;28;20196;-64
2023/03/01 14:07:29;;;;;;;11.90;10.70;;;;;;;;;;5065164;28;20215;-63
2023/03/01 14:09:58;;;;;;;11.23;10.10;;;;;;;;;;5063941;28;20226;-64
2023/03/01 14:12:41;;;;;;;10.57;9.43;;;;;;;;;;5059272;28;20211;-63
2023/03/01 14:15:10;;;;;;;11.73;10.53;;;;;;;;;;5059873;28;20250;-64
2023/03/01 14:17:51;;;;;;;11.63;9.93;;;;;;;;;;5060828;28;20199;-64
2023/03/01 14:20:22;;;;;;;11.17;9.97;;;;;;;;;;5060394;28;20195;-64
2023/03/01 14:22:50;;;;;;;11.73;10.33;;;;;;;;;;5057543;28;20219;-64
2023/03/01 14:25:30;;;;;;;10.77;9.67;;;;;;;;;;5060666;28;20226;-64
2023/03/01 14:28:03;;;;;;;10.40;9.37;;;;;;;;;;5059271;28;20206;-63
2023/03/01 14:30:33;;;;;;;10.83;9.57;;;;;;;;;;5058819;28;20230;-63
2023/03/01 14:33:00;;;;;;;10.53;9.43;;;;;;;;;;5056178;28;20207;-62
2023/03/01 14:35:29;;;;;;;11.20;10.03;;;;;;;;;;5062034;28;20207;-62
2023/03/01 14:37:57;;;;;;;11.53;10.20;;;;;;;;;;5065866;28;20199;-62
2023/03/01 14:40:25;;;;;;;12.10;10.60;;;;;;;;;;5058735;28;20206;-64
2023/03/01 14:42:53;;;;;;;12.37;10.23;;;;;;;;;;5064165;28;20209;-63